sensor_id;sensor_type;location;lat;lon;timestamp;P1;durP1;ratioP1;P2;durP2;ratioP2
8044;SDS011;4065;48.754;9.982;2024-01-10T00:00:27;29.00;;;18.65;;
8044;SDS011;4065;48.754;9.982;2024-01-10T00:03:51;32.40;;;19.80;;
8044;SDS011;4065;48.754;9.982;2024-01-10T00:07:13;25.92;;;16.45;;
8044;SDS011;4065;48.754;9.982;2024-01-10T00:10:35;26.63;;;16.85;;
8044;SDS011;4065;48.754;9.982;2024-01-10T00:13:57;23.38;;;16.77;;
8044;SDS011;4065;48.754;9.982;2024-01-10T00:17:20;31.55;;;17.48;;
8044;SDS011;4065;48.754;9.982;2024-01-10T00:20:44;23.75;;;15.57;;
8044;SDS011;4065;48.754;9.982;2024-01-10T00:24:05;27.23;;;16.75;;
8044;SDS011;4065;48.754;9.982;2024-01-10T00:27:27;23.27;;;17.00;;
8044;SDS011;4065;48.754;9.982;2024-01-10T00:30:49;25.83;;;16.45;;
8044;SDS011;4065;48.754;9.982;2024-01-10T00:34:11;26.58;;;16.60;;
8044;SDS011;4065;48.754;9.982;2024-01-10T00:37:35;24.23;;;16.60;;
8044;SDS011;4065;48.754;9.982;2024-01-10T00:40:56;25.67;;;15.48;;
8044;SDS011;4065;48.754;9.982;2024-01-10T00:44:19;23.02;;;15.73;;
8044;SDS011;4065;48.754;9.982;2024-01-10T00:47:40;27.38;;;16.25;;
8044;SDS011;4065;48.754;9.982;2024-01-10T00:51:02;23.02;;;16.23;;
8044;SDS011;4065;48.754;9.982;2024-01-10T00:54:30;33.85;;;17.42;;
8044;SDS011;4065;48.754;9.982;2024-01-10T00:57:52;28.83;;;16.25;;
8044;SDS011;4065;48.754;9.982;2024-01-10T01:01:14;27.98;;;17.55;;
8044;SDS011;4065;48.754;9.982;2024-01-10T01:04:36;30.50;;;17.77;;
8044;SDS011;4065;48.754;9.982;2024-01-10T01:07:58;27.45;;;16.85;;
8044;SDS011;4065;48.754;9.982;2024-01-10T01:11:21;26.35;;;16.48;;
8044;SDS011;4065;48.754;9.982;2024-01-10T01:14:43;23.55;;;15.50;;
8044;SDS011;4065;48.754;9.982;2024-01-10T01:18:05;24.65;;;15.85;;
8044;SDS011;4065;48.754;9.982;2024-01-10T01:21:27;23.80;;;15.20;;
8044;SDS011;4065;48.754;9.982;2024-01-10T01:24:49;23.73;;;16.15;;
8044;SDS011;4065;48.754;9.982;2024-01-10T01:28:15;25.40;;;16.08;;
8044;SDS011;4065;48.754;9.982;2024-01-10T01:31:37;26.73;;;18.85;;
8044;SDS011;4065;48.754;9.982;2024-01-10T01:34:59;27.25;;;16.33;;
8044;SDS011;4065;48.754;9.982;2024-01-10T01:38:21;22.77;;;16.15;;
8044;SDS011;4065;48.754;9.982;2024-01-10T01:41:43;24.73;;;16.40;;
8044;SDS011;4065;48.754;9.982;2024-01-10T01:45:06;26.77;;;17.85;;
8044;SDS011;4065;48.754;9.982;2024-01-10T01:48:28;24.40;;;16.60;;
8044;SDS011;4065;48.754;9.982;2024-01-10T01:51:51;26.70;;;15.85;;
8044;SDS011;4065;48.754;9.982;2024-01-10T01:55:16;25.48;;;16.38;;
8044;SDS011;4065;48.754;9.982;2024-01-10T01:58:38;27.00;;;15.50;;
8044;SDS011;4065;48.754;9.982;2024-01-10T02:02:02;25.45;;;16.20;;
8044;SDS011;4065;48.754;9.982;2024-01-10T02:05:24;22.90;;;15.43;;
8044;SDS011;4065;48.754;9.982;2024-01-10T02:08:46;23.52;;;16.27;;
8044;SDS011;4065;48.754;9.982;2024-01-10T02:12:08;24.90;;;14.93;;
8044;SDS011;4065;48.754;9.982;2024-01-10T02:15:30;23.15;;;15.48;;
8044;SDS011;4065;48.754;9.982;2024-01-10T02:18:54;26.13;;;17.38;;
8044;SDS011;4065;48.754;9.982;2024-01-10T02:22:16;29.92;;;18.02;;
8044;SDS011;4065;48.754;9.982;2024-01-10T02:25:39;29.42;;;16.70;;
8044;SDS011;4065;48.754;9.982;2024-01-10T02:29:02;24.60;;;15.98;;
8044;SDS011;4065;48.754;9.982;2024-01-10T02:32:24;26.27;;;16.60;;
8044;SDS011;4065;48.754;9.982;2024-01-10T02:35:45;26.80;;;16.90;;
8044;SDS011;4065;48.754;9.982;2024-01-10T02:39:07;28.13;;;17.23;;
8044;SDS011;4065;48.754;9.982;2024-01-10T02:42:31;27.48;;;17.25;;
8044;SDS011;4065;48.754;9.982;2024-01-10T02:45:53;25.92;;;16.92;;
8044;SDS011;4065;48.754;9.982;2024-01-10T02:49:15;23.92;;;16.48;;
8044;SDS011;4065;48.754;9.982;2024-01-10T02:52:38;27.60;;;17.30;;
8044;SDS011;4065;48.754;9.982;2024-01-10T02:56:00;20.13;;;13.40;;
8044;SDS011;4065;48.754;9.982;2024-01-10T02:59:24;24.20;;;16.27;;
8044;SDS011;4065;48.754;9.982;2024-01-10T03:02:46;26.85;;;16.38;;
8044;SDS011;4065;48.754;9.982;2024-01-10T03:06:08;24.83;;;16.98;;
8044;SDS011;4065;48.754;9.982;2024-01-10T03:09:30;24.38;;;16.17;;
8044;SDS011;4065;48.754;9.982;2024-01-10T03:12:51;25.70;;;17.33;;
8044;SDS011;4065;48.754;9.982;2024-01-10T03:16:15;26.50;;;16.73;;
8044;SDS011;4065;48.754;9.982;2024-01-10T03:19:37;25.30;;;16.95;;
8044;SDS011;4065;48.754;9.982;2024-01-10T03:23:03;25.85;;;17.27;;
8044;SDS011;4065;48.754;9.982;2024-01-10T03:26:25;26.25;;;18.13;;
8044;SDS011;4065;48.754;9.982;2024-01-10T03:29:48;27.02;;;17.42;;
8044;SDS011;4065;48.754;9.982;2024-01-10T03:33:11;28.13;;;17.77;;
8044;SDS011;4065;48.754;9.982;2024-01-10T03:36:33;23.85;;;15.65;;
8044;SDS011;4065;48.754;9.982;2024-01-10T03:39:55;28.95;;;18.35;;
8044;SDS011;4065;48.754;9.982;2024-01-10T03:43:18;26.75;;;17.40;;
8044;SDS011;4065;48.754;9.982;2024-01-10T03:46:40;28.30;;;17.75;;
8044;SDS011;4065;48.754;9.982;2024-01-10T03:50:03;29.63;;;19.85;;
8044;SDS011;4065;48.754;9.982;2024-01-10T03:53:27;30.60;;;18.83;;
8044;SDS011;4065;48.754;9.982;2024-01-10T03:56:49;31.70;;;19.50;;
8044;SDS011;4065;48.754;9.982;2024-01-10T04:00:11;31.13;;;18.00;;
8044;SDS011;4065;48.754;9.982;2024-01-10T04:03:34;31.42;;;19.95;;
8044;SDS011;4065;48.754;9.982;2024-01-10T04:06:57;29.77;;;20.00;;
8044;SDS011;4065;48.754;9.982;2024-01-10T04:10:19;29.77;;;19.50;;
8044;SDS011;4065;48.754;9.982;2024-01-10T04:13:41;29.48;;;18.10;;
8044;SDS011;4065;48.754;9.982;2024-01-10T04:17:03;33.97;;;21.58;;
8044;SDS011;4065;48.754;9.982;2024-01-10T04:20:27;32.88;;;19.38;;
8044;SDS011;4065;48.754;9.982;2024-01-10T04:23:50;35.47;;;22.63;;
8044;SDS011;4065;48.754;9.982;2024-01-10T04:27:13;34.35;;;21.38;;
8044;SDS011;4065;48.754;9.982;2024-01-10T04:30:35;30.38;;;20.10;;
8044;SDS011;4065;48.754;9.982;2024-01-10T04:33:57;32.67;;;20.92;;
8044;SDS011;4065;48.754;9.982;2024-01-10T04:37:18;23.88;;;15.98;;
8044;SDS011;4065;48.754;9.982;2024-01-10T04:40:42;34.60;;;21.13;;
8044;SDS011;4065;48.754;9.982;2024-01-10T04:44:04;24.00;;;17.13;;
8044;SDS011;4065;48.754;9.982;2024-01-10T04:47:26;37.28;;;21.48;;
8044;SDS011;4065;48.754;9.982;2024-01-10T04:50:48;32.05;;;21.13;;
8044;SDS011;4065;48.754;9.982;2024-01-10T04:54:10;40.08;;;21.80;;
8044;SDS011;4065;48.754;9.982;2024-01-10T04:57:33;34.80;;;20.63;;
8044;SDS011;4065;48.754;9.982;2024-01-10T05:00:55;25.05;;;17.35;;
8044;SDS011;4065;48.754;9.982;2024-01-10T05:04:17;32.63;;;20.90;;
8044;SDS011;4065;48.754;9.982;2024-01-10T05:07:39;33.47;;;21.38;;
8044;SDS011;4065;48.754;9.982;2024-01-10T05:11:01;31.42;;;20.75;;
8044;SDS011;4065;48.754;9.982;2024-01-10T05:14:24;36.00;;;21.90;;
8044;SDS011;4065;48.754;9.982;2024-01-10T05:17:46;34.92;;;20.70;;
8044;SDS011;4065;48.754;9.982;2024-01-10T05:21:08;31.50;;;22.20;;
8044;SDS011;4065;48.754;9.982;2024-01-10T05:24:30;38.65;;;22.40;;
8044;SDS011;4065;48.754;9.982;2024-01-10T05:27:52;37.67;;;21.83;;
8044;SDS011;4065;48.754;9.982;2024-01-10T05:31:16;30.85;;;21.58;;
8044;SDS011;4065;48.754;9.982;2024-01-10T05:34:37;33.10;;;21.02;;
8044;SDS011;4065;48.754;9.982;2024-01-10T05:37:59;39.00;;;22.38;;
8044;SDS011;4065;48.754;9.982;2024-01-10T05:41:23;38.35;;;23.90;;
8044;SDS011;4065;48.754;9.982;2024-01-10T05:44:45;41.17;;;23.55;;
8044;SDS011;4065;48.754;9.982;2024-01-10T05:48:08;33.83;;;22.33;;
8044;SDS011;4065;48.754;9.982;2024-01-10T05:51:30;35.63;;;24.35;;
8044;SDS011;4065;48.754;9.982;2024-01-10T05:54:52;43.88;;;23.50;;
8044;SDS011;4065;48.754;9.982;2024-01-10T05:58:14;39.80;;;23.42;;
8044;SDS011;4065;48.754;9.982;2024-01-10T06:01:36;34.58;;;22.83;;
8044;SDS011;4065;48.754;9.982;2024-01-10T06:05:00;35.67;;;22.48;;
8044;SDS011;4065;48.754;9.982;2024-01-10T06:08:24;39.03;;;23.45;;
8044;SDS011;4065;48.754;9.982;2024-01-10T06:11:49;37.97;;;24.60;;
8044;SDS011;4065;48.754;9.982;2024-01-10T06:15:11;40.75;;;23.45;;
8044;SDS011;4065;48.754;9.982;2024-01-10T06:18:33;42.15;;;25.52;;
8044;SDS011;4065;48.754;9.982;2024-01-10T06:21:56;38.88;;;24.15;;
8044;SDS011;4065;48.754;9.982;2024-01-10T06:25:18;36.38;;;23.10;;
8044;SDS011;4065;48.754;9.982;2024-01-10T06:28:40;44.15;;;26.45;;
8044;SDS011;4065;48.754;9.982;2024-01-10T06:32:02;39.15;;;24.98;;
8044;SDS011;4065;48.754;9.982;2024-01-10T06:35:24;41.60;;;25.02;;
8044;SDS011;4065;48.754;9.982;2024-01-10T06:38:48;43.08;;;24.63;;
8044;SDS011;4065;48.754;9.982;2024-01-10T06:42:09;41.22;;;25.15;;
8044;SDS011;4065;48.754;9.982;2024-01-10T06:45:32;37.22;;;25.35;;
8044;SDS011;4065;48.754;9.982;2024-01-10T06:48:54;38.95;;;24.80;;
8044;SDS011;4065;48.754;9.982;2024-01-10T06:52:16;40.58;;;26.40;;
8044;SDS011;4065;48.754;9.982;2024-01-10T06:55:39;36.25;;;24.05;;
8044;SDS011;4065;48.754;9.982;2024-01-10T06:59:01;44.88;;;26.00;;
8044;SDS011;4065;48.754;9.982;2024-01-10T07:02:26;37.80;;;24.60;;
8044;SDS011;4065;48.754;9.982;2024-01-10T07:05:48;39.95;;;25.40;;
8044;SDS011;4065;48.754;9.982;2024-01-10T07:09:10;41.38;;;24.88;;
8044;SDS011;4065;48.754;9.982;2024-01-10T07:12:34;43.47;;;25.23;;
8044;SDS011;4065;48.754;9.982;2024-01-10T07:15:56;39.92;;;25.83;;
8044;SDS011;4065;48.754;9.982;2024-01-10T07:19:18;44.17;;;26.55;;
8044;SDS011;4065;48.754;9.982;2024-01-10T07:22:40;44.75;;;28.63;;
8044;SDS011;4065;48.754;9.982;2024-01-10T07:26:04;46.40;;;29.42;;
8044;SDS011;4065;48.754;9.982;2024-01-10T07:29:27;47.47;;;29.17;;
8044;SDS011;4065;48.754;9.982;2024-01-10T07:32:49;44.30;;;25.63;;
8044;SDS011;4065;48.754;9.982;2024-01-10T07:36:11;47.10;;;27.23;;
8044;SDS011;4065;48.754;9.982;2024-01-10T07:39:34;48.28;;;27.40;;
8044;SDS011;4065;48.754;9.982;2024-01-10T07:42:55;46.97;;;29.05;;
8044;SDS011;4065;48.754;9.982;2024-01-10T07:46:19;48.20;;;31.63;;
8044;SDS011;4065;48.754;9.982;2024-01-10T07:49:43;49.15;;;28.17;;
8044;SDS011;4065;48.754;9.982;2024-01-10T07:53:05;47.67;;;28.75;;
8044;SDS011;4065;48.754;9.982;2024-01-10T07:56:28;43.78;;;26.55;;
8044;SDS011;4065;48.754;9.982;2024-01-10T07:59:50;46.97;;;28.23;;
8044;SDS011;4065;48.754;9.982;2024-01-10T08:03:14;47.15;;;26.88;;
8044;SDS011;4065;48.754;9.982;2024-01-10T08:06:36;44.92;;;26.98;;
8044;SDS011;4065;48.754;9.982;2024-01-10T08:09:58;46.55;;;28.50;;
8044;SDS011;4065;48.754;9.982;2024-01-10T08:13:20;46.60;;;28.77;;
8044;SDS011;4065;48.754;9.982;2024-01-10T08:16:42;45.28;;;27.88;;
8044;SDS011;4065;48.754;9.982;2024-01-10T08:20:07;49.75;;;28.90;;
8044;SDS011;4065;48.754;9.982;2024-01-10T08:23:31;43.10;;;27.08;;
8044;SDS011;4065;48.754;9.982;2024-01-10T08:26:53;44.80;;;26.58;;
8044;SDS011;4065;48.754;9.982;2024-01-10T08:30:15;49.55;;;26.27;;
8044;SDS011;4065;48.754;9.982;2024-01-10T08:33:37;43.47;;;26.08;;
8044;SDS011;4065;48.754;9.982;2024-01-10T08:37:00;48.92;;;28.38;;
8044;SDS011;4065;48.754;9.982;2024-01-10T08:40:23;46.47;;;28.55;;
8044;SDS011;4065;48.754;9.982;2024-01-10T08:43:46;51.63;;;28.50;;
8044;SDS011;4065;48.754;9.982;2024-01-10T08:47:08;50.90;;;29.00;;
8044;SDS011;4065;48.754;9.982;2024-01-10T08:50:30;46.97;;;28.35;;
8044;SDS011;4065;48.754;9.982;2024-01-10T08:53:55;46.88;;;27.58;;
8044;SDS011;4065;48.754;9.982;2024-01-10T08:57:18;42.40;;;26.80;;
8044;SDS011;4065;48.754;9.982;2024-01-10T09:00:40;47.05;;;26.30;;
8044;SDS011;4065;48.754;9.982;2024-01-10T09:04:02;49.25;;;29.67;;
8044;SDS011;4065;48.754;9.982;2024-01-10T09:07:27;50.88;;;28.98;;
8044;SDS011;4065;48.754;9.982;2024-01-10T09:10:52;46.90;;;27.83;;
8044;SDS011;4065;48.754;9.982;2024-01-10T09:14:14;47.58;;;25.48;;
8044;SDS011;4065;48.754;9.982;2024-01-10T09:17:36;44.40;;;27.10;;
8044;SDS011;4065;48.754;9.982;2024-01-10T09:20:58;49.03;;;28.17;;
8044;SDS011;4065;48.754;9.982;2024-01-10T09:24:20;41.15;;;25.48;;
8044;SDS011;4065;48.754;9.982;2024-01-10T09:27:44;42.88;;;26.58;;
8044;SDS011;4065;48.754;9.982;2024-01-10T09:31:07;40.85;;;26.35;;
8044;SDS011;4065;48.754;9.982;2024-01-10T09:34:29;41.08;;;25.25;;
8044;SDS011;4065;48.754;9.982;2024-01-10T09:37:52;46.03;;;26.58;;
8044;SDS011;4065;48.754;9.982;2024-01-10T09:41:15;42.28;;;28.33;;
8044;SDS011;4065;48.754;9.982;2024-01-10T09:44:39;42.72;;;27.92;;
8044;SDS011;4065;48.754;9.982;2024-01-10T09:48:01;48.95;;;29.35;;
8044;SDS011;4065;48.754;9.982;2024-01-10T09:51:23;41.33;;;26.00;;
8044;SDS011;4065;48.754;9.982;2024-01-10T09:54:45;37.47;;;24.38;;
8044;SDS011;4065;48.754;9.982;2024-01-10T09:58:08;46.10;;;27.70;;
8044;SDS011;4065;48.754;9.982;2024-01-10T10:01:32;48.97;;;29.55;;
8044;SDS011;4065;48.754;9.982;2024-01-10T10:04:54;50.45;;;28.92;;
8044;SDS011;4065;48.754;9.982;2024-01-10T10:08:21;44.00;;;28.58;;
8044;SDS011;4065;48.754;9.982;2024-01-10T10:11:44;42.22;;;26.92;;
8044;SDS011;4065;48.754;9.982;2024-01-10T10:15:15;50.20;;;27.83;;
8044;SDS011;4065;48.754;9.982;2024-01-10T10:18:40;43.38;;;27.40;;
8044;SDS011;4065;48.754;9.982;2024-01-10T10:22:09;47.45;;;28.10;;
8044;SDS011;4065;48.754;9.982;2024-01-10T10:25:32;45.35;;;29.13;;
8044;SDS011;4065;48.754;9.982;2024-01-10T10:28:55;49.17;;;28.08;;
8044;SDS011;4065;48.754;9.982;2024-01-10T10:32:17;47.80;;;27.83;;
8044;SDS011;4065;48.754;9.982;2024-01-10T10:35:41;59.08;;;36.22;;
8044;SDS011;4065;48.754;9.982;2024-01-10T10:39:06;43.38;;;27.60;;
8044;SDS011;4065;48.754;9.982;2024-01-10T10:42:33;45.40;;;27.88;;
8044;SDS011;4065;48.754;9.982;2024-01-10T10:45:57;44.78;;;27.33;;
8044;SDS011;4065;48.754;9.982;2024-01-10T10:49:19;47.53;;;27.33;;
8044;SDS011;4065;48.754;9.982;2024-01-10T10:52:49;41.50;;;25.60;;
8044;SDS011;4065;48.754;9.982;2024-01-10T10:56:12;44.72;;;26.98;;
8044;SDS011;4065;48.754;9.982;2024-01-10T10:59:34;47.92;;;28.13;;
8044;SDS011;4065;48.754;9.982;2024-01-10T11:02:57;40.03;;;25.42;;
8044;SDS011;4065;48.754;9.982;2024-01-10T11:06:19;44.63;;;27.20;;
8044;SDS011;4065;48.754;9.982;2024-01-10T11:09:43;41.95;;;26.58;;
8044;SDS011;4065;48.754;9.982;2024-01-10T11:13:10;50.42;;;32.05;;
8044;SDS011;4065;48.754;9.982;2024-01-10T11:20:26;232.18;;;97.40;;
8044;SDS011;4065;48.754;9.982;2024-01-10T11:24:00;182.77;;;91.28;;
8044;SDS011;4065;48.754;9.982;2024-01-10T11:27:25;44.45;;;28.60;;
8044;SDS011;4065;48.754;9.982;2024-01-10T11:30:49;51.70;;;31.33;;
8044;SDS011;4065;48.754;9.982;2024-01-10T11:34:12;45.20;;;27.48;;
8044;SDS011;4065;48.754;9.982;2024-01-10T11:37:38;41.78;;;25.85;;
8044;SDS011;4065;48.754;9.982;2024-01-10T11:41:01;44.67;;;26.52;;
8044;SDS011;4065;48.754;9.982;2024-01-10T11:47:58;40.92;;;25.13;;
8044;SDS011;4065;48.754;9.982;2024-01-10T11:51:23;45.33;;;26.45;;
8044;SDS011;4065;48.754;9.982;2024-01-10T11:54:45;43.67;;;26.48;;
8044;SDS011;4065;48.754;9.982;2024-01-10T11:58:08;40.67;;;26.45;;
8044;SDS011;4065;48.754;9.982;2024-01-10T12:01:33;44.15;;;25.45;;
8044;SDS011;4065;48.754;9.982;2024-01-10T12:04:55;34.25;;;24.63;;
8044;SDS011;4065;48.754;9.982;2024-01-10T12:08:18;41.03;;;24.88;;
8044;SDS011;4065;48.754;9.982;2024-01-10T12:11:40;40.60;;;25.50;;
8044;SDS011;4065;48.754;9.982;2024-01-10T12:15:02;42.13;;;25.73;;
8044;SDS011;4065;48.754;9.982;2024-01-10T12:18:28;38.47;;;25.92;;
8044;SDS011;4065;48.754;9.982;2024-01-10T12:21:50;40.72;;;24.83;;
8044;SDS011;4065;48.754;9.982;2024-01-10T12:25:12;36.85;;;24.55;;
8044;SDS011;4065;48.754;9.982;2024-01-10T12:28:40;39.67;;;24.85;;
8044;SDS011;4065;48.754;9.982;2024-01-10T12:32:03;37.65;;;25.35;;
8044;SDS011;4065;48.754;9.982;2024-01-10T12:35:27;37.47;;;23.77;;
8044;SDS011;4065;48.754;9.982;2024-01-10T12:38:49;39.17;;;25.02;;
8044;SDS011;4065;48.754;9.982;2024-01-10T12:42:11;41.63;;;23.88;;
8044;SDS011;4065;48.754;9.982;2024-01-10T12:45:33;39.35;;;25.67;;
8044;SDS011;4065;48.754;9.982;2024-01-10T12:49:03;38.55;;;24.10;;
8044;SDS011;4065;48.754;9.982;2024-01-10T12:52:28;40.38;;;23.83;;
8044;SDS011;4065;48.754;9.982;2024-01-10T12:55:50;35.15;;;22.73;;
8044;SDS011;4065;48.754;9.982;2024-01-10T12:59:13;37.65;;;23.73;;
8044;SDS011;4065;48.754;9.982;2024-01-10T13:02:35;34.28;;;22.05;;
8044;SDS011;4065;48.754;9.982;2024-01-10T13:05:58;34.60;;;22.88;;
8044;SDS011;4065;48.754;9.982;2024-01-10T13:09:23;35.60;;;22.85;;
8044;SDS011;4065;48.754;9.982;2024-01-10T13:12:45;37.33;;;22.90;;
8044;SDS011;4065;48.754;9.982;2024-01-10T13:16:07;33.45;;;21.25;;
8044;SDS011;4065;48.754;9.982;2024-01-10T13:19:32;34.00;;;22.02;;
8044;SDS011;4065;48.754;9.982;2024-01-10T13:22:54;36.90;;;23.02;;
8044;SDS011;4065;48.754;9.982;2024-01-10T13:26:17;37.60;;;24.33;;
8044;SDS011;4065;48.754;9.982;2024-01-10T13:29:40;36.72;;;24.08;;
8044;SDS011;4065;48.754;9.982;2024-01-10T13:33:02;37.22;;;23.50;;
8044;SDS011;4065;48.754;9.982;2024-01-10T13:36:27;38.75;;;23.52;;
8044;SDS011;4065;48.754;9.982;2024-01-10T13:39:49;39.53;;;25.33;;
8044;SDS011;4065;48.754;9.982;2024-01-10T13:43:13;39.72;;;23.88;;
8044;SDS011;4065;48.754;9.982;2024-01-10T13:46:36;37.28;;;23.05;;
8044;SDS011;4065;48.754;9.982;2024-01-10T13:49:57;36.00;;;22.77;;
8044;SDS011;4065;48.754;9.982;2024-01-10T13:53:19;40.78;;;23.33;;
8044;SDS011;4065;48.754;9.982;2024-01-10T13:56:42;40.17;;;23.90;;
8044;SDS011;4065;48.754;9.982;2024-01-10T14:00:06;38.20;;;24.90;;
8044;SDS011;4065;48.754;9.982;2024-01-10T14:03:29;37.20;;;24.02;;
8044;SDS011;4065;48.754;9.982;2024-01-10T14:06:51;35.25;;;22.80;;
8044;SDS011;4065;48.754;9.982;2024-01-10T14:10:15;37.38;;;23.30;;
8044;SDS011;4065;48.754;9.982;2024-01-10T14:13:39;41.03;;;24.63;;
8044;SDS011;4065;48.754;9.982;2024-01-10T14:17:02;45.22;;;24.58;;
8044;SDS011;4065;48.754;9.982;2024-01-10T14:20:25;39.42;;;24.40;;
8044;SDS011;4065;48.754;9.982;2024-01-10T14:23:47;42.22;;;24.55;;
8044;SDS011;4065;48.754;9.982;2024-01-10T14:27:09;40.50;;;25.17;;
8044;SDS011;4065;48.754;9.982;2024-01-10T14:30:31;43.80;;;25.92;;
8044;SDS011;4065;48.754;9.982;2024-01-10T14:33:55;36.38;;;23.38;;
8044;SDS011;4065;48.754;9.982;2024-01-10T14:37:17;38.58;;;23.13;;
8044;SDS011;4065;48.754;9.982;2024-01-10T14:40:41;37.35;;;25.02;;
8044;SDS011;4065;48.754;9.982;2024-01-10T14:44:03;40.95;;;25.08;;
8044;SDS011;4065;48.754;9.982;2024-01-10T14:47:28;43.25;;;26.25;;
8044;SDS011;4065;48.754;9.982;2024-01-10T14:50:52;38.20;;;22.77;;
8044;SDS011;4065;48.754;9.982;2024-01-10T14:54:14;42.10;;;25.52;;
8044;SDS011;4065;48.754;9.982;2024-01-10T14:57:35;48.85;;;27.38;;
8044;SDS011;4065;48.754;9.982;2024-01-10T15:00:58;39.72;;;25.40;;
8044;SDS011;4065;48.754;9.982;2024-01-10T15:04:20;40.90;;;24.23;;
8044;SDS011;4065;48.754;9.982;2024-01-10T15:07:46;40.35;;;23.42;;
8044;SDS011;4065;48.754;9.982;2024-01-10T15:11:08;40.88;;;23.65;;
8044;SDS011;4065;48.754;9.982;2024-01-10T15:14:31;47.40;;;26.17;;
8044;SDS011;4065;48.754;9.982;2024-01-10T15:17:54;51.30;;;32.15;;
8044;SDS011;4065;48.754;9.982;2024-01-10T15:21:16;42.22;;;24.38;;
8044;SDS011;4065;48.754;9.982;2024-01-10T15:24:41;43.55;;;26.33;;
8044;SDS011;4065;48.754;9.982;2024-01-10T15:28:03;43.67;;;28.05;;
8044;SDS011;4065;48.754;9.982;2024-01-10T15:31:25;45.92;;;29.10;;
8044;SDS011;4065;48.754;9.982;2024-01-10T15:34:49;40.85;;;26.42;;
8044;SDS011;4065;48.754;9.982;2024-01-10T15:38:11;48.55;;;28.55;;
8044;SDS011;4065;48.754;9.982;2024-01-10T15:41:36;42.35;;;25.60;;
8044;SDS011;4065;48.754;9.982;2024-01-10T15:44:58;44.00;;;27.85;;
8044;SDS011;4065;48.754;9.982;2024-01-10T15:48:20;52.15;;;30.52;;
8044;SDS011;4065;48.754;9.982;2024-01-10T15:51:42;51.40;;;29.58;;
8044;SDS011;4065;48.754;9.982;2024-01-10T15:55:04;60.67;;;33.17;;
8044;SDS011;4065;48.754;9.982;2024-01-10T15:58:30;61.65;;;33.50;;
8044;SDS011;4065;48.754;9.982;2024-01-10T16:01:53;55.67;;;30.80;;
8044;SDS011;4065;48.754;9.982;2024-01-10T16:05:15;52.00;;;31.55;;
8044;SDS011;4065;48.754;9.982;2024-01-10T16:08:38;59.90;;;32.40;;
8044;SDS011;4065;48.754;9.982;2024-01-10T16:12:00;72.10;;;42.08;;
8044;SDS011;4065;48.754;9.982;2024-01-10T16:15:23;71.75;;;41.15;;
8044;SDS011;4065;48.754;9.982;2024-01-10T16:18:47;62.45;;;38.20;;
8044;SDS011;4065;48.754;9.982;2024-01-10T16:22:09;67.05;;;36.80;;
8044;SDS011;4065;48.754;9.982;2024-01-10T16:25:31;57.08;;;33.78;;
8044;SDS011;4065;48.754;9.982;2024-01-10T16:28:53;64.88;;;37.20;;
8044;SDS011;4065;48.754;9.982;2024-01-10T16:32:16;56.15;;;34.15;;
8044;SDS011;4065;48.754;9.982;2024-01-10T16:35:38;73.60;;;39.35;;
8044;SDS011;4065;48.754;9.982;2024-01-10T16:39:00;66.78;;;39.05;;
8044;SDS011;4065;48.754;9.982;2024-01-10T16:42:22;60.47;;;35.42;;
8044;SDS011;4065;48.754;9.982;2024-01-10T16:45:44;72.55;;;41.15;;
8044;SDS011;4065;48.754;9.982;2024-01-10T16:49:09;66.65;;;37.63;;
8044;SDS011;4065;48.754;9.982;2024-01-10T16:52:32;66.50;;;37.25;;
8044;SDS011;4065;48.754;9.982;2024-01-10T16:55:54;63.67;;;37.60;;
8044;SDS011;4065;48.754;9.982;2024-01-10T16:59:17;60.38;;;33.50;;
8044;SDS011;4065;48.754;9.982;2024-01-10T17:02:40;69.32;;;38.47;;
8044;SDS011;4065;48.754;9.982;2024-01-10T17:06:04;64.60;;;35.85;;
8044;SDS011;4065;48.754;9.982;2024-01-10T17:09:26;64.43;;;36.90;;
8044;SDS011;4065;48.754;9.982;2024-01-10T17:12:49;63.05;;;34.72;;
8044;SDS011;4065;48.754;9.982;2024-01-10T17:16:12;68.97;;;38.60;;
8044;SDS011;4065;48.754;9.982;2024-01-10T17:19:34;77.22;;;44.17;;
8044;SDS011;4065;48.754;9.982;2024-01-10T17:22:57;66.55;;;37.65;;
8044;SDS011;4065;48.754;9.982;2024-01-10T17:26:19;67.80;;;37.28;;
8044;SDS011;4065;48.754;9.982;2024-01-10T17:29:41;66.40;;;36.50;;
8044;SDS011;4065;48.754;9.982;2024-01-10T17:33:04;66.28;;;37.47;;
8044;SDS011;4065;48.754;9.982;2024-01-10T17:36:32;56.97;;;35.47;;
8044;SDS011;4065;48.754;9.982;2024-01-10T17:39:57;65.30;;;37.30;;
8044;SDS011;4065;48.754;9.982;2024-01-10T17:43:19;65.05;;;38.67;;
8044;SDS011;4065;48.754;9.982;2024-01-10T17:46:40;58.53;;;35.47;;
8044;SDS011;4065;48.754;9.982;2024-01-10T17:50:03;65.15;;;37.75;;
8044;SDS011;4065;48.754;9.982;2024-01-10T17:53:28;61.88;;;37.83;;
8044;SDS011;4065;48.754;9.982;2024-01-10T17:56:52;66.05;;;37.47;;
8044;SDS011;4065;48.754;9.982;2024-01-10T18:00:14;62.55;;;36.58;;
8044;SDS011;4065;48.754;9.982;2024-01-10T18:03:36;64.68;;;36.22;;
8044;SDS011;4065;48.754;9.982;2024-01-10T18:06:58;65.13;;;40.72;;
8044;SDS011;4065;48.754;9.982;2024-01-10T18:10:20;64.30;;;39.65;;
8044;SDS011;4065;48.754;9.982;2024-01-10T18:13:44;69.47;;;38.08;;
8044;SDS011;4065;48.754;9.982;2024-01-10T18:17:06;71.70;;;39.83;;
8044;SDS011;4065;48.754;9.982;2024-01-10T18:20:28;64.45;;;37.83;;
8044;SDS011;4065;48.754;9.982;2024-01-10T18:23:50;70.97;;;39.22;;
8044;SDS011;4065;48.754;9.982;2024-01-10T18:27:19;69.78;;;40.17;;
8044;SDS011;4065;48.754;9.982;2024-01-10T18:30:43;73.22;;;41.53;;
8044;SDS011;4065;48.754;9.982;2024-01-10T18:34:05;70.60;;;39.38;;
8044;SDS011;4065;48.754;9.982;2024-01-10T18:37:30;71.57;;;38.88;;
8044;SDS011;4065;48.754;9.982;2024-01-10T18:40:52;74.80;;;42.38;;
8044;SDS011;4065;48.754;9.982;2024-01-10T18:44:14;121.47;;;63.75;;
8044;SDS011;4065;48.754;9.982;2024-01-10T18:47:37;102.65;;;54.15;;
8044;SDS011;4065;48.754;9.982;2024-01-10T18:51:00;84.38;;;46.80;;
8044;SDS011;4065;48.754;9.982;2024-01-10T18:54:22;87.22;;;46.78;;
8044;SDS011;4065;48.754;9.982;2024-01-10T18:57:45;78.85;;;44.65;;
8044;SDS011;4065;48.754;9.982;2024-01-10T19:01:08;79.72;;;42.33;;
8044;SDS011;4065;48.754;9.982;2024-01-10T19:04:34;95.00;;;44.60;;
8044;SDS011;4065;48.754;9.982;2024-01-10T19:07:56;87.82;;;45.08;;
8044;SDS011;4065;48.754;9.982;2024-01-10T19:11:18;85.82;;;44.75;;
8044;SDS011;4065;48.754;9.982;2024-01-10T19:14:40;82.97;;;43.90;;
8044;SDS011;4065;48.754;9.982;2024-01-10T19:18:02;93.80;;;46.08;;
8044;SDS011;4065;48.754;9.982;2024-01-10T19:21:26;89.78;;;47.38;;
8044;SDS011;4065;48.754;9.982;2024-01-10T19:24:48;82.88;;;42.85;;
8044;SDS011;4065;48.754;9.982;2024-01-10T19:28:10;86.43;;;46.65;;
8044;SDS011;4065;48.754;9.982;2024-01-10T19:31:33;83.65;;;44.25;;
8044;SDS011;4065;48.754;9.982;2024-01-10T19:34:55;86.22;;;45.25;;
8044;SDS011;4065;48.754;9.982;2024-01-10T19:38:18;86.30;;;43.08;;
8044;SDS011;4065;48.754;9.982;2024-01-10T19:41:40;90.82;;;43.92;;
8044;SDS011;4065;48.754;9.982;2024-01-10T19:45:02;87.68;;;43.00;;
8044;SDS011;4065;48.754;9.982;2024-01-10T19:48:24;79.43;;;42.03;;
8044;SDS011;4065;48.754;9.982;2024-01-10T19:51:46;85.43;;;43.08;;
8044;SDS011;4065;48.754;9.982;2024-01-10T19:55:10;82.10;;;44.97;;
8044;SDS011;4065;48.754;9.982;2024-01-10T19:58:35;83.95;;;43.30;;
8044;SDS011;4065;48.754;9.982;2024-01-10T20:01:57;91.65;;;46.17;;
8044;SDS011;4065;48.754;9.982;2024-01-10T20:05:19;91.65;;;44.75;;
8044;SDS011;4065;48.754;9.982;2024-01-10T20:08:41;89.10;;;44.42;;
8044;SDS011;4065;48.754;9.982;2024-01-10T20:12:05;87.15;;;46.03;;
8044;SDS011;4065;48.754;9.982;2024-01-10T20:15:27;79.95;;;42.65;;
8044;SDS011;4065;48.754;9.982;2024-01-10T20:18:49;76.93;;;41.88;;
8044;SDS011;4065;48.754;9.982;2024-01-10T20:22:11;88.80;;;44.30;;
8044;SDS011;4065;48.754;9.982;2024-01-10T20:25:33;88.90;;;43.95;;
8044;SDS011;4065;48.754;9.982;2024-01-10T20:28:58;83.32;;;42.10;;